Terminal Aerodrome Forecast
Issued by NWS

Current Version | Previous Version | Text Only | Print | Product List | Glossary On
Versions: 1 2 3 4 5 6 7 8 9 10 11 12 13 14
000
FTUS44 KCRP 260500
TAFALI
TAF
KALI 260526Z 2606/2706 15008KT P6SM SCT022
     FM261400 17014G18KT P6SM SCT028
     FM262100 14019G25KT P6SM FEW050 SCT250
     FM270300 15010KT P6SM FEW250=

USA.gov is the U.S. government's official web portal to all federal, state and local government web resources and services.